createdAt,value
2022-08-01T00:00:11.665Z,50.32
2022-08-01T00:02:40.257Z,49.97
2022-08-01T00:05:10.674Z,50.58
2022-08-01T00:07:40.576Z,50.78
2022-08-01T00:10:13.224Z,50.45
2022-08-01T00:12:41.931Z,50.25
2022-08-01T00:15:12.325Z,50.39
2022-08-01T00:17:41.077Z,50.04
2022-08-01T00:20:12.175Z,49.77
2022-08-01T00:22:42.089Z,50.28
2022-08-01T00:25:10.993Z,49.80
2022-08-01T00:27:39.439Z,50.34
2022-08-01T00:30:13.538Z,50.42
2022-08-01T00:32:43.354Z,49.96
2022-08-01T00:35:12.491Z,49.70
2022-08-01T00:37:42.234Z,49.60
2022-08-01T00:40:11.466Z,49.85
2022-08-01T00:42:43.505Z,49.51
2022-08-01T00:45:12.809Z,49.67
2022-08-01T00:47:41.495Z,49.71
2022-08-01T00:50:11.515Z,49.51
2022-08-01T00:52:41.361Z,49.34
2022-08-01T00:55:14.958Z,49.24
2022-08-01T00:58:05.218Z,49.37
2022-08-01T01:00:44.841Z,49.55
2022-08-01T01:03:26.363Z,49.68
2022-08-01T01:06:23.329Z,49.22
2022-08-01T01:09:01.033Z,48.80
2022-08-01T01:11:39.317Z,49.22
2022-08-01T01:14:11.949Z,49.33
2022-08-01T01:16:40.627Z,49.16
2022-08-01T01:19:11.424Z,49.28
2022-08-01T01:21:58.854Z,48.99
2022-08-01T01:24:36.417Z,48.92
2022-08-01T01:27:11.020Z,49.26
2022-08-01T01:29:58.647Z,49.11
2022-08-01T01:32:34.944Z,49.23
2022-08-01T01:35:06.503Z,49.45
2022-08-01T01:37:35.267Z,49.07
2022-08-01T01:40:04.642Z,49.25
2022-08-01T01:42:33.180Z,49.39
2022-08-01T01:45:03.288Z,49.34
2022-08-01T01:47:31.785Z,49.24
2022-08-01T01:50:00.262Z,48.98
2022-08-01T01:52:28.965Z,49.43
2022-08-01T01:54:57.451Z,48.98
2022-08-01T01:57:26.068Z,49.07
2022-08-01T01:59:54.542Z,49.15
2022-08-01T02:02:24.496Z,49.14
2022-08-01T02:04:53.660Z,48.74
2022-08-01T02:07:24.793Z,48.92
2022-08-01T02:09:53.845Z,48.78
2022-08-01T02:12:23.384Z,48.83
2022-08-01T02:14:53.285Z,49.10
2022-08-01T02:17:23.220Z,48.97
2022-08-01T02:19:51.641Z,49.00
2022-08-01T02:22:23.571Z,48.86
2022-08-01T02:24:56.641Z,48.89
2022-08-01T02:27:27.353Z,48.96
2022-08-01T02:29:59.667Z,48.92
2022-08-01T02:32:34.255Z,48.95
2022-08-01T02:35:03.586Z,48.88
2022-08-01T02:37:33.886Z,48.72
2022-08-01T02:40:02.410Z,48.99
2022-08-01T02:42:31.986Z,48.96
2022-08-01T02:45:00.503Z,48.90
2022-08-01T02:47:30.506Z,48.56
2022-08-01T02:49:59.045Z,48.79
2022-08-01T02:52:27.928Z,48.64
2022-08-01T02:54:57.562Z,48.69
2022-08-01T02:57:32.825Z,48.59
2022-08-01T03:00:15.608Z,48.82
2022-08-01T03:02:46.410Z,48.68
2022-08-01T03:05:15.324Z,48.51
2022-08-01T03:07:44.396Z,48.59
2022-08-01T03:10:17.210Z,48.67
2022-08-01T03:12:45.726Z,48.39
2022-08-01T03:15:16.832Z,48.87
2022-08-01T03:17:47.754Z,48.45
2022-08-01T03:20:17.585Z,48.25
2022-08-01T03:22:46.416Z,48.77
2022-08-01T03:25:15.469Z,48.48
2022-08-01T03:27:44.802Z,48.61
2022-08-01T03:30:16.551Z,48.45
2022-08-01T03:32:47.325Z,48.12
2022-08-01T03:35:15.765Z,48.47
2022-08-01T03:38:14.171Z,48.48
2022-08-01T03:40:41.689Z,48.23
2022-08-01T03:43:13.070Z,48.53
2022-08-01T03:45:43.004Z,48.39
2022-08-01T03:48:16.390Z,48.49
2022-08-01T03:50:48.066Z,48.54
2022-08-01T03:53:16.577Z,48.44
2022-08-01T03:55:45.371Z,48.19
2022-08-01T03:58:13.864Z,48.27
2022-08-01T04:00:42.461Z,48.38
2022-08-01T04:03:15.200Z,48.29
2022-08-01T04:05:43.915Z,48.38
2022-08-01T04:08:12.509Z,48.38
2022-08-01T04:10:40.969Z,48.14
2022-08-01T04:13:09.566Z,48.06
2022-08-01T04:15:38.029Z,48.26
2022-08-01T04:18:07.895Z,48.34
2022-08-01T04:20:37.796Z,48.20
2022-08-01T04:23:06.604Z,48.35
2022-08-01T04:25:36.148Z,48.43
2022-08-01T04:28:06.601Z,48.22
2022-08-01T04:30:38.088Z,48.61
2022-08-01T04:33:07.341Z,48.55
2022-08-01T04:36:01.858Z,48.53
2022-08-01T04:38:28.460Z,48.55
2022-08-01T04:40:56.919Z,48.67
2022-08-01T04:43:25.426Z,48.76
2022-08-01T04:45:53.911Z,48.40
2022-08-01T04:48:23.076Z,48.43
2022-08-01T04:50:53.263Z,48.60
2022-08-01T04:53:22.985Z,48.78
2022-08-01T04:55:51.700Z,48.58
2022-08-01T04:58:20.235Z,48.55
2022-08-01T05:00:48.810Z,48.47
2022-08-01T05:03:17.349Z,48.50
2022-08-01T05:05:45.954Z,48.48
2022-08-01T05:08:17.428Z,48.72
2022-08-01T05:10:46.112Z,48.39
2022-08-01T05:13:14.596Z,48.63
2022-08-01T05:15:43.119Z,48.82
2022-08-01T05:18:11.550Z,48.58
2022-08-01T05:20:40.540Z,48.76
2022-08-01T05:23:10.735Z,48.63
2022-08-01T05:25:57.410Z,48.73
2022-08-01T05:28:26.835Z,48.60
2022-08-01T05:30:56.012Z,48.48
2022-08-01T05:33:24.807Z,48.66
2022-08-01T05:35:53.223Z,48.75
2022-08-01T05:38:21.856Z,48.35
2022-08-01T05:40:51.879Z,48.20
2022-08-01T05:43:20.502Z,48.32
2022-08-01T05:45:50.247Z,48.70
2022-08-01T05:48:18.682Z,48.69
2022-08-01T05:50:48.764Z,49.01
2022-08-01T05:53:17.218Z,49.02
2022-08-01T05:55:45.682Z,48.98
2022-08-01T05:58:15.516Z,49.19
2022-08-01T06:00:43.897Z,48.93
2022-08-01T06:03:13.498Z,48.68
2022-08-01T06:05:41.890Z,48.66
2022-08-01T06:08:10.355Z,49.21
2022-08-01T06:10:38.805Z,49.34
2022-08-01T06:13:07.302Z,49.52
2022-08-01T06:15:37.182Z,49.15
2022-08-01T06:18:06.080Z,47.90
2022-08-01T06:20:34.581Z,47.29
2022-08-01T06:23:22.496Z,48.17
2022-08-01T06:25:54.344Z,47.06
2022-08-01T06:28:22.915Z,47.19
2022-08-01T06:30:52.952Z,48.38
2022-08-01T06:33:23.081Z,49.05
2022-08-01T06:35:51.638Z,48.86
2022-08-01T06:38:20.199Z,48.28
2022-08-01T06:40:48.961Z,48.35
2022-08-01T06:43:17.755Z,48.45
2022-08-01T06:45:46.216Z,48.16
2022-08-01T06:48:16.023Z,47.99
2022-08-01T06:50:44.545Z,48.21
2022-08-01T06:53:13.035Z,48.01
2022-08-01T06:55:41.610Z,48.36
2022-08-01T06:58:10.302Z,48.03
2022-08-01T07:00:38.761Z,47.65
2022-08-01T07:03:07.287Z,48.02
2022-08-01T07:05:37.473Z,47.89
2022-08-01T07:08:07.257Z,47.74
2022-08-01T07:10:35.707Z,48.05
2022-08-01T07:13:04.256Z,48.60
2022-08-01T07:15:32.814Z,47.79
2022-08-01T07:18:04.741Z,48.10
2022-08-01T07:20:37.962Z,48.03
2022-08-01T07:23:22.521Z,48.22
2022-08-01T07:25:55.933Z,48.21
2022-08-01T07:28:26.705Z,47.89
2022-08-01T07:30:55.223Z,47.66
2022-08-01T07:33:23.992Z,48.17
2022-08-01T07:35:52.558Z,48.69
2022-08-01T07:38:22.886Z,48.07
2022-08-01T07:40:51.392Z,46.69
2022-08-01T07:43:19.847Z,47.19
2022-08-01T07:45:48.379Z,47.26
2022-08-01T07:48:17.100Z,46.48
2022-08-01T07:50:46.289Z,46.82
2022-08-01T07:53:14.949Z,47.87
2022-08-01T07:55:44.809Z,46.22
2022-08-01T07:58:14.956Z,47.17
2022-08-01T08:00:43.790Z,48.22
2022-08-01T08:03:12.386Z,47.84
2022-08-01T08:05:58.697Z,48.27
2022-08-01T08:08:28.608Z,48.34
2022-08-01T08:10:58.492Z,49.15
2022-08-01T08:13:26.981Z,48.35
2022-08-01T08:15:55.455Z,47.76
2022-08-01T08:18:23.921Z,47.01
2022-08-01T08:20:52.421Z,46.96
2022-08-01T08:23:42.071Z,47.83
2022-08-01T08:26:13.808Z,46.66
2022-08-01T08:28:42.364Z,47.84
2022-08-01T08:31:25.201Z,47.51
2022-08-01T08:33:59.369Z,47.36
2022-08-01T08:36:31.449Z,47.26
2022-08-01T08:39:01.666Z,46.32
2022-08-01T08:41:37.772Z,47.27
2022-08-01T08:44:10.102Z,49.04
2022-08-01T08:46:43.618Z,47.40
2022-08-01T08:49:13.218Z,47.50
2022-08-01T08:51:42.194Z,47.41
2022-08-01T08:54:12.673Z,47.83
2022-08-01T08:56:42.813Z,48.86
2022-08-01T08:59:11.272Z,49.55
2022-08-01T09:01:39.723Z,49.98
2022-08-01T09:04:08.274Z,47.62
2022-08-01T09:06:36.759Z,46.58
2022-08-01T09:09:05.742Z,46.62
2022-08-01T09:11:34.429Z,46.44
2022-08-01T09:14:09.987Z,48.60
2022-08-01T09:16:39.641Z,47.60
2022-08-01T09:19:16.126Z,47.19
2022-08-01T09:22:04.543Z,47.29
2022-08-01T09:24:33.807Z,46.79
2022-08-01T09:27:03.390Z,46.32
2022-08-01T09:29:37.213Z,46.94
2022-08-01T09:32:14.133Z,46.96
2022-08-01T09:34:45.142Z,46.97
2022-08-01T09:37:15.250Z,48.53
2022-08-01T09:39:46.490Z,49.79
2022-08-01T09:42:28.404Z,49.26
2022-08-01T09:45:00.084Z,49.25
2022-08-01T09:47:39.826Z,47.71
2022-08-01T09:50:11.286Z,47.79
2022-08-01T09:52:41.214Z,49.31
2022-08-01T09:55:11.192Z,49.47
2022-08-01T09:57:39.760Z,49.45
2022-08-01T10:00:35.714Z,48.66
2022-08-01T10:03:22.339Z,48.75
2022-08-01T10:05:54.408Z,48.62
2022-08-01T10:08:24.301Z,48.64
2022-08-01T10:11:09.446Z,48.40
2022-08-01T10:13:40.775Z,48.79
2022-08-01T10:16:10.801Z,48.43
2022-08-01T10:18:39.890Z,48.15
2022-08-01T10:21:10.779Z,47.71
2022-08-01T10:23:41.204Z,47.81
2022-08-01T10:26:11.424Z,47.68
2022-08-01T10:28:40.514Z,47.70
2022-08-01T10:31:12.378Z,48.07
2022-08-01T10:33:50.773Z,49.42
2022-08-01T10:36:22.820Z,49.77
2022-08-01T10:38:53.804Z,50.24
2022-08-01T10:41:23.058Z,50.56
2022-08-01T10:43:52.716Z,50.95
2022-08-01T10:46:22.617Z,51.34
2022-08-01T10:48:58.814Z,51.42
2022-08-01T10:51:52.943Z,49.39
2022-08-01T10:54:16.687Z,48.28
2022-08-01T10:56:46.714Z,48.13
2022-08-01T10:59:50.205Z,48.77
2022-08-01T11:02:12.060Z,48.29
2022-08-01T11:04:50.258Z,47.93
2022-08-01T11:07:20.991Z,47.59
2022-08-01T11:10:05.203Z,47.76
2022-08-01T11:12:44.294Z,47.61
2022-08-01T11:15:29.978Z,48.73
2022-08-01T11:18:02.599Z,48.00
2022-08-01T11:20:32.570Z,48.01
2022-08-01T11:23:26.539Z,47.86
2022-08-01T11:26:29.117Z,48.10
2022-08-01T11:29:22.879Z,48.58
2022-08-01T11:31:52.945Z,48.26
2022-08-01T11:34:26.713Z,48.72
2022-08-01T11:37:30.649Z,48.43
2022-08-01T11:40:19.644Z,48.58
2022-08-01T11:42:48.345Z,48.86
2022-08-01T11:45:18.690Z,49.09
2022-08-01T11:47:49.931Z,48.78
2022-08-01T11:50:39.062Z,48.55
2022-08-01T11:53:09.227Z,48.99
2022-08-01T11:55:39.888Z,49.04
2022-08-01T11:58:22.403Z,48.78
2022-08-01T12:00:57.206Z,48.93
2022-08-01T12:03:33.137Z,49.37
2022-08-01T12:06:04.290Z,49.47
2022-08-01T12:08:35.856Z,49.14
2022-08-01T12:11:06.889Z,48.66
2022-08-01T12:13:43.137Z,49.09
2022-08-01T12:16:11.954Z,49.17
2022-08-01T12:18:41.491Z,48.94
2022-08-01T12:21:11.321Z,49.44
2022-08-01T12:23:39.793Z,49.21
2022-08-01T12:26:08.296Z,49.28
2022-08-01T12:28:55.186Z,49.04
2022-08-01T12:31:33.976Z,49.19
2022-08-01T12:34:30.006Z,49.16
2022-08-01T12:37:00.921Z,49.11
2022-08-01T12:39:34.794Z,48.88
2022-08-01T12:42:03.422Z,48.53
2022-08-01T12:44:32.407Z,48.82
2022-08-01T12:47:01.746Z,48.71
2022-08-01T12:49:30.246Z,49.00
2022-08-01T12:52:00.105Z,49.44
2022-08-01T12:54:28.688Z,49.55
2022-08-01T12:56:58.179Z,49.65
2022-08-01T12:59:27.673Z,49.45
2022-08-01T13:01:59.417Z,49.76
2022-08-01T13:04:28.125Z,49.76
2022-08-01T13:06:56.731Z,50.56
2022-08-01T13:09:27.507Z,50.51
2022-08-01T13:12:04.290Z,50.48
2022-08-01T13:14:45.629Z,50.45
2022-08-01T13:17:15.819Z,50.63
2022-08-01T13:19:45.131Z,49.93
2022-08-01T13:22:13.607Z,50.08
2022-08-01T13:24:43.469Z,49.98
2022-08-01T13:27:24.357Z,50.24
2022-08-01T13:29:54.417Z,50.43
2022-08-01T13:32:30.023Z,49.73
2022-08-01T13:35:06.124Z,49.88
2022-08-01T13:37:34.756Z,49.92
2022-08-01T13:40:05.025Z,49.82
2022-08-01T13:42:33.452Z,49.90
2022-08-01T13:45:02.933Z,49.95
2022-08-01T13:47:32.759Z,50.43
2022-08-01T13:50:03.926Z,50.49
2022-08-01T13:52:32.794Z,50.09
2022-08-01T13:55:02.275Z,50.38
2022-08-01T13:57:36.660Z,50.22
2022-08-01T14:00:07.846Z,50.77
2022-08-01T14:02:36.337Z,50.36
2022-08-01T14:05:05.209Z,50.54
2022-08-01T14:07:33.698Z,50.48
2022-08-01T14:10:18.439Z,50.48
2022-08-01T14:12:50.639Z,50.93
2022-08-01T14:15:38.712Z,50.70
2022-08-01T14:18:09.504Z,50.84
2022-08-01T14:20:39.039Z,50.93
2022-08-01T14:23:08.647Z,50.70
2022-08-01T14:26:01.639Z,50.56
2022-08-01T14:28:29.358Z,50.79
2022-08-01T14:30:58.117Z,50.62
2022-08-01T14:33:26.730Z,50.62
2022-08-01T14:36:05.393Z,50.78
2022-08-01T14:38:35.422Z,50.68
2022-08-01T14:41:04.793Z,51.06
2022-08-01T14:43:34.960Z,51.00
2022-08-01T14:46:04.667Z,51.09
2022-08-01T14:48:33.495Z,51.03
2022-08-01T14:51:03.940Z,51.16
2022-08-01T14:53:34.424Z,51.06
2022-08-01T14:56:05.148Z,51.31
2022-08-01T14:58:34.962Z,51.70
2022-08-01T15:01:03.507Z,51.68
2022-08-01T15:03:32.789Z,51.62
2022-08-01T15:06:01.514Z,51.46
2022-08-01T15:08:31.203Z,52.00
2022-08-01T15:10:59.642Z,52.10
2022-08-01T15:13:28.116Z,51.64
2022-08-01T15:16:00.145Z,51.41
2022-08-01T15:18:29.348Z,51.96
2022-08-01T15:20:58.421Z,52.01
2022-08-01T15:23:26.918Z,52.24
2022-08-01T15:25:55.404Z,52.22
2022-08-01T15:28:24.007Z,52.42
2022-08-01T15:30:52.482Z,52.06
2022-08-01T15:33:22.811Z,52.19
2022-08-01T15:35:52.777Z,52.55
2022-08-01T15:38:22.765Z,52.17
2022-08-01T15:40:51.429Z,52.79
2022-08-01T15:43:20.016Z,53.13
2022-08-01T15:45:49.712Z,53.31
2022-08-01T15:48:18.425Z,53.28
2022-08-01T15:50:48.326Z,53.44
2022-08-01T15:53:16.944Z,53.68
2022-08-01T15:55:52.205Z,53.12
2022-08-01T15:58:23.466Z,53.54
2022-08-01T16:00:51.983Z,53.80
2022-08-01T16:03:22.011Z,54.05
2022-08-01T16:05:51.997Z,53.81
2022-08-01T16:08:20.513Z,53.99
2022-08-01T16:10:49.135Z,53.98
2022-08-01T16:13:17.973Z,54.32
2022-08-01T16:15:46.453Z,54.04
2022-08-01T16:18:16.250Z,53.63
2022-08-01T16:20:46.079Z,53.27
2022-08-01T16:23:16.560Z,53.11
2022-08-01T16:25:45.461Z,52.83
2022-08-01T16:28:14.547Z,52.34
2022-08-01T16:30:48.876Z,52.68
2022-08-01T16:33:45.248Z,52.74
2022-08-01T16:36:17.554Z,52.45
2022-08-01T16:38:47.627Z,52.81
2022-08-01T16:41:19.304Z,52.42
2022-08-01T16:43:53.318Z,52.21
2022-08-01T16:46:25.121Z,52.19
2022-08-01T16:48:54.096Z,52.71
2022-08-01T16:51:22.740Z,52.38
2022-08-01T16:53:52.652Z,52.73
2022-08-01T16:56:21.550Z,52.40
2022-08-01T16:58:50.040Z,52.58
2022-08-01T17:02:01.298Z,52.81
2022-08-01T17:04:08.079Z,52.42
2022-08-01T17:06:36.543Z,52.45
2022-08-01T17:09:06.683Z,52.77
2022-08-01T17:11:35.169Z,52.62
2022-08-01T17:14:03.612Z,52.67
2022-08-01T17:16:32.453Z,52.77
2022-08-01T17:19:00.974Z,52.73
2022-08-01T17:21:29.538Z,52.63
2022-08-01T17:23:58.137Z,52.86
2022-08-01T17:26:27.984Z,52.69
2022-08-01T17:28:56.522Z,52.97
2022-08-01T17:31:25.157Z,52.98
2022-08-01T17:33:55.172Z,52.81
2022-08-01T17:36:23.921Z,53.14
2022-08-01T17:38:52.578Z,52.67
2022-08-01T17:41:21.153Z,52.97
2022-08-01T17:43:51.016Z,53.04
2022-08-01T17:46:19.485Z,53.46
2022-08-01T17:48:48.011Z,53.77
2022-08-01T17:51:22.132Z,53.65
2022-08-01T17:53:56.692Z,53.76
2022-08-01T17:56:26.800Z,54.58
2022-08-01T17:58:56.815Z,54.59
2022-08-01T18:01:26.986Z,54.12
2022-08-01T18:03:57.747Z,54.29
2022-08-01T18:06:26.809Z,54.21
2022-08-01T18:08:59.684Z,54.07
2022-08-01T18:11:37.252Z,54.08
2022-08-01T18:14:07.940Z,54.25
2022-08-01T18:16:36.441Z,53.89
2022-08-01T18:19:06.712Z,53.56
2022-08-01T18:21:38.549Z,53.77
2022-08-01T18:24:10.041Z,53.75
2022-08-01T18:26:38.912Z,53.77
2022-08-01T18:29:10.013Z,53.96
2022-08-01T18:31:41.037Z,53.78
2022-08-01T18:34:09.506Z,53.80
2022-08-01T18:36:40.344Z,53.46
2022-08-01T18:39:10.590Z,53.52
2022-08-01T18:41:39.473Z,53.73
2022-08-01T18:44:09.669Z,53.74
2022-08-01T18:46:39.318Z,53.67
2022-08-01T18:49:09.602Z,53.38
2022-08-01T18:51:43.844Z,53.87
2022-08-01T18:54:12.919Z,53.75
2022-08-01T18:56:42.323Z,53.64
2022-08-01T18:59:12.217Z,53.33
2022-08-01T19:01:40.740Z,53.66
2022-08-01T19:04:09.390Z,53.90
2022-08-01T19:06:38.223Z,54.18
2022-08-01T19:09:07.526Z,54.20
2022-08-01T19:11:36.347Z,53.94
2022-08-01T19:14:05.013Z,54.11
2022-08-01T19:16:35.062Z,53.83
2022-08-01T19:19:06.885Z,53.91
2022-08-01T19:21:35.753Z,53.98
2022-08-01T19:24:23.063Z,53.81
2022-08-01T19:26:53.829Z,53.66
2022-08-01T19:29:23.803Z,53.70
2022-08-01T19:32:06.505Z,53.87
2022-08-01T19:34:36.820Z,53.93
2022-08-01T19:37:05.575Z,54.48
2022-08-01T19:39:37.448Z,53.97
2022-08-01T19:42:06.158Z,54.03
2022-08-01T19:44:34.688Z,54.73
2022-08-01T19:47:04.985Z,55.00
2022-08-01T19:49:33.860Z,54.57
2022-08-01T19:52:03.629Z,55.51
2022-08-01T19:54:35.134Z,55.25
2022-08-01T19:57:07.367Z,55.54
2022-08-01T19:59:37.167Z,55.50
2022-08-01T20:02:07.141Z,55.72
2022-08-01T20:04:35.943Z,55.52
2022-08-01T20:07:04.830Z,55.76
2022-08-01T20:09:34.403Z,55.59
2022-08-01T20:12:03.055Z,56.07
2022-08-01T20:14:31.505Z,56.04
2022-08-01T20:16:59.926Z,56.00
2022-08-01T20:19:30.655Z,55.92
2022-08-01T20:22:03.656Z,56.15
2022-08-01T20:24:39.609Z,56.23
2022-08-01T20:27:10.493Z,56.79
2022-08-01T20:29:39.273Z,56.75
2022-08-01T20:32:08.344Z,56.47
2022-08-01T20:34:40.724Z,57.03
2022-08-01T20:37:12.881Z,57.00
2022-08-01T20:39:43.537Z,56.91
2022-08-01T20:42:12.779Z,56.87
2022-08-01T20:44:41.277Z,56.98
2022-08-01T20:47:10.321Z,57.05
2022-08-01T20:49:40.495Z,56.84
2022-08-01T20:52:11.928Z,56.87
2022-08-01T20:54:42.387Z,56.81
2022-08-01T20:57:13.674Z,56.59
2022-08-01T20:59:56.778Z,56.95
2022-08-01T21:02:38.955Z,57.01
2022-08-01T21:05:10.995Z,57.34
2022-08-01T21:07:41.315Z,57.23
2022-08-01T21:10:10.921Z,56.96
2022-08-01T21:12:45.060Z,57.19
2022-08-01T21:15:16.942Z,57.56
2022-08-01T21:17:47.659Z,57.04
2022-08-01T21:20:17.687Z,57.59
2022-08-01T21:22:54.170Z,56.88
2022-08-01T21:25:27.212Z,57.40
2022-08-01T21:27:56.002Z,57.02
2022-08-01T21:30:25.185Z,56.48
2022-08-01T21:32:53.915Z,56.34
2022-08-01T21:35:26.595Z,56.48
2022-08-01T21:37:55.165Z,56.34
2022-08-01T21:40:24.704Z,56.22
2022-08-01T21:42:54.280Z,56.40
2022-08-01T21:45:25.025Z,56.22
2022-08-01T21:47:53.564Z,56.56
2022-08-01T21:50:25.359Z,56.48
2022-08-01T21:53:05.494Z,56.64
2022-08-01T21:55:38.297Z,56.38
2022-08-01T21:58:33.156Z,55.93
2022-08-01T22:01:11.400Z,56.17
2022-08-01T22:03:45.813Z,55.90
2022-08-01T22:06:17.361Z,55.56
2022-08-01T22:08:50.889Z,55.50
2022-08-01T22:11:21.455Z,55.42
2022-08-01T22:13:51.181Z,55.59
2022-08-01T22:16:19.729Z,55.21
2022-08-01T22:18:48.139Z,54.99
2022-08-01T22:21:18.233Z,55.41
2022-08-01T22:23:46.719Z,55.24
2022-08-01T22:26:15.242Z,55.63
2022-08-01T22:28:43.709Z,55.96
2022-08-01T22:31:12.192Z,55.91
2022-08-01T22:33:41.014Z,55.66
2022-08-01T22:36:09.511Z,55.52
2022-08-01T22:38:39.466Z,55.94
2022-08-01T22:41:10.538Z,56.01
2022-08-01T22:43:43.090Z,56.03
2022-08-01T22:46:18.825Z,56.00
2022-08-01T22:48:50.253Z,56.36
2022-08-01T22:51:30.777Z,56.19
2022-08-01T22:54:06.289Z,56.08
2022-08-01T22:56:39.292Z,56.26
2022-08-01T22:59:13.603Z,56.60
2022-08-01T23:01:48.014Z,56.83
2022-08-01T23:04:33.171Z,57.33
2022-08-01T23:07:06.660Z,57.54
2022-08-01T23:09:39.324Z,57.80
2022-08-01T23:12:24.547Z,57.50
2022-08-01T23:14:54.583Z,57.72
2022-08-01T23:17:27.733Z,57.94
2022-08-01T23:20:00.113Z,57.52
2022-08-01T23:22:32.583Z,57.92
2022-08-01T23:25:06.448Z,57.93
2022-08-01T23:27:51.689Z,57.97
2022-08-01T23:30:31.721Z,57.96
2022-08-01T23:33:00.317Z,57.72
2022-08-01T23:35:29.038Z,57.99
2022-08-01T23:38:01.932Z,58.44
2022-08-01T23:40:33.264Z,58.36
2022-08-01T23:43:01.929Z,58.68
2022-08-01T23:46:02.015Z,58.60
2022-08-01T23:48:19.070Z,58.70
2022-08-01T23:50:47.898Z,59.05
2022-08-01T23:53:16.665Z,58.53
2022-08-01T23:55:46.643Z,58.52
2022-08-01T23:58:15.124Z,59.04
